Time;durP1;ratioP1;P1;durP2;ratioP2;P2;SDS_P1;SDS_P2;PMS_P1;PMS_P2;Temp;Humidity;BMP_temperature;BMP_pressure;BME280_temperature;BME280_humidity;BME280_pressure;Samples;Min_cycle;Max_cycle;Signal;HPM_P1;HPM_P2
2023/09/15 06:17:50;;;;;;;4.90;3.47;;;;;;;;;;10701112;27;20047;-82
2023/09/15 06:28:45;;;;;;;3.78;2.65;;;;;;;;;;10626172;28;20027;-84
2023/09/15 06:34:27;;;;;;;3.95;2.25;;;;;;;;;;10607145;28;20031;-84
2023/09/15 06:39:28;;;;;;;4.40;2.78;;;;;;;;;;10624151;27;20028;-84
2023/09/15 06:44:51;;;;;;;7.18;4.05;;;;;;;;;;10610039;28;20023;-84
2023/09/15 06:50:23;;;;;;;6.75;4.50;;;;;;;;;;10612546;27;20023;-85
2023/09/15 06:55:41;;;;;;;11.80;6.57;;;;;;;;;;10653418;27;20046;-84
2023/09/15 07:00:43;;;;;;;7.03;4.00;;;;;;;;;;10626674;27;20031;-81
2023/09/15 07:05:44;;;;;;;6.32;2.65;;;;;;;;;;10620232;27;20109;-80
2023/09/15 07:10:50;;;;;;;5.03;2.97;;;;;;;;;;10617830;27;20118;-80
2023/09/15 07:15:53;;;;;;;6.85;2.97;;;;;;;;;;10618529;27;20023;-81
2023/09/15 07:21:05;;;;;;;4.40;2.58;;;;;;;;;;10637225;27;20046;-79
2023/09/15 07:26:06;;;;;;;4.50;2.95;;;;;;;;;;10616308;27;20023;-78
2023/09/15 07:31:07;;;;;;;4.68;2.92;;;;;;;;;;10614080;27;20501;-80
2023/09/15 07:36:11;;;;;;;6.25;3.00;;;;;;;;;;10613578;27;20030;-79
2023/09/15 07:41:13;;;;;;;5.05;3.00;;;;;;;;;;10613101;27;20078;-78
2023/09/15 07:46:17;;;;;;;4.78;2.60;;;;;;;;;;10613847;27;20401;-80
2023/09/15 07:51:19;;;;;;;3.55;2.70;;;;;;;;;;10611352;27;20023;-78
2023/09/15 07:56:26;;;;;;;4.82;2.88;;;;;;;;;;10612989;27;20509;-80
2023/09/15 08:01:27;;;;;;;5.63;3.00;;;;;;;;;;10631821;27;20506;-79
2023/09/15 08:06:28;;;;;;;5.80;3.20;;;;;;;;;;10620541;27;20043;-77
2023/09/15 08:11:34;;;;;;;5.38;2.63;;;;;;;;;;10633371;27;20033;-78
2023/09/15 08:16:35;;;;;;;6.55;2.97;;;;;;;;;;10610440;27;20463;-79
2023/09/15 08:21:36;;;;;;;5.30;2.67;;;;;;;;;;10611330;27;20160;-78
2023/09/15 08:26:38;;;;;;;6.25;2.90;;;;;;;;;;10628338;27;20556;-78
2023/09/15 08:31:41;;;;;;;4.75;2.50;;;;;;;;;;10610777;27;20047;-82
2023/09/15 08:36:42;;;;;;;6.32;2.97;;;;;;;;;;10594395;27;20023;-77
2023/09/15 08:41:47;;;;;;;6.70;3.30;;;;;;;;;;10611697;27;20033;-79
2023/09/15 08:46:49;;;;;;;4.80;2.97;;;;;;;;;;10611852;27;20121;-80
2023/09/15 08:51:52;;;;;;;5.32;3.10;;;;;;;;;;10613092;27;20019;-79
2023/09/15 08:56:56;;;;;;;4.15;2.75;;;;;;;;;;10629892;27;20106;-79
2023/09/15 09:01:57;;;;;;;4.95;2.60;;;;;;;;;;10609759;27;20135;-78
2023/09/15 09:06:59;;;;;;;6.35;2.60;;;;;;;;;;10609623;27;20023;-78
2023/09/15 09:12:03;;;;;;;6.55;2.70;;;;;;;;;;10611784;27;20470;-78
2023/09/15 09:17:12;;;;;;;4.32;2.67;;;;;;;;;;10635558;27;20023;-78
2023/09/15 09:22:19;;;;;;;6.25;2.72;;;;;;;;;;10661040;27;20038;-77
2023/09/15 09:27:21;;;;;;;3.95;2.35;;;;;;;;;;10615999;27;20027;-78
2023/09/15 09:32:22;;;;;;;5.72;4.30;;;;;;;;;;10613611;27;20114;-79
2023/09/15 09:37:26;;;;;;;5.55;2.25;;;;;;;;;;10615682;27;20047;-79
2023/09/15 09:42:28;;;;;;;5.25;2.40;;;;;;;;;;10611734;28;20129;-78
2023/09/15 09:47:29;;;;;;;5.63;2.67;;;;;;;;;;10610208;28;20362;-79
2023/09/15 09:52:31;;;;;;;4.60;2.40;;;;;;;;;;10609655;28;20555;-81
2023/09/15 09:57:33;;;;;;;6.03;3.47;;;;;;;;;;10626852;28;20394;-80
2023/09/15 10:02:34;;;;;;;3.92;2.35;;;;;;;;;;10613424;28;20019;-77
2023/09/15 10:07:35;;;;;;;4.72;2.30;;;;;;;;;;10607766;28;20072;-77
2023/09/15 10:12:38;;;;;;;6.22;3.20;;;;;;;;;;10610080;28;20037;-78
2023/09/15 10:17:39;;;;;;;8.95;2.90;;;;;;;;;;10606706;28;20428;-77
2023/09/15 10:22:40;;;;;;;6.40;2.38;;;;;;;;;;10606012;28;20147;-78
2023/09/15 10:27:41;;;;;;;4.35;2.45;;;;;;;;;;10624363;28;20023;-78
2023/09/15 10:32:43;;;;;;;3.47;2.22;;;;;;;;;;10615769;27;20029;-77
2023/09/15 10:37:44;;;;;;;4.32;2.55;;;;;;;;;;10622661;27;20462;-80
2023/09/15 10:42:49;;;;;;;4.35;2.42;;;;;;;;;;10621923;27;20051;-77
2023/09/15 10:48:01;;;;;;;4.45;2.53;;;;;;;;;;10613481;27;20034;-78
2023/09/15 10:53:09;;;;;;;5.10;2.75;;;;;;;;;;10614229;27;20023;-78
2023/09/15 10:58:11;;;;;;;5.00;2.90;;;;;;;;;;10614608;27;20031;-78
2023/09/15 11:03:23;;;;;;;5.57;2.45;;;;;;;;;;10613707;27;20023;-78
2023/09/15 11:08:27;;;;;;;4.43;2.47;;;;;;;;;;10633914;27;20098;-78
2023/09/15 11:13:31;;;;;;;4.88;2.50;;;;;;;;;;10613415;27;20050;-78
2023/09/15 11:18:33;;;;;;;5.03;3.05;;;;;;;;;;10612291;27;20117;-78
2023/09/15 11:23:37;;;;;;;4.22;2.65;;;;;;;;;;10612097;27;20023;-78
2023/09/15 11:28:38;;;;;;;3.70;2.35;;;;;;;;;;10608048;27;20467;-78
2023/09/15 11:33:42;;;;;;;5.10;2.63;;;;;;;;;;10612001;27;20504;-78
2023/09/15 11:38:43;;;;;;;3.53;2.13;;;;;;;;;;10609142;27;20035;-78
2023/09/15 11:43:45;;;;;;;5.88;2.83;;;;;;;;;;10610688;27;20093;-78
2023/09/15 11:48:48;;;;;;;4.97;3.15;;;;;;;;;;10629423;27;20462;-79
2023/09/15 11:53:58;;;;;;;7.63;3.97;;;;;;;;;;10615126;27;20057;-80
2023/09/15 11:59:00;;;;;;;3.72;2.63;;;;;;;;;;10626774;27;20031;-84
2023/09/15 12:04:13;;;;;;;4.88;2.30;;;;;;;;;;10624656;27;20031;-84
2023/09/15 12:09:14;;;;;;;3.28;2.30;;;;;;;;;;10626778;27;20034;-86
2023/09/15 12:14:27;;;;;;;5.13;2.78;;;;;;;;;;10626353;27;20027;-85
2023/09/15 12:19:44;;;;;;;6.35;2.92;;;;;;;;;;10632015;27;20011;-84
2023/09/15 12:24:56;;;;;;;3.53;2.50;;;;;;;;;;10673510;27;20012;-86
2023/09/15 12:29:57;;;;;;;5.68;2.88;;;;;;;;;;10616741;27;20062;-83
2023/09/15 12:34:59;;;;;;;4.15;2.63;;;;;;;;;;10620327;27;20474;-83
2023/09/15 12:40:01;;;;;;;3.58;2.90;;;;;;;;;;10621812;27;20508;-84
2023/09/15 12:45:03;;;;;;;3.15;2.40;;;;;;;;;;10639913;27;20110;-83
2023/09/15 12:50:05;;;;;;;3.00;2.33;;;;;;;;;;10616734;27;20031;-83
2023/09/15 12:55:06;;;;;;;5.43;2.20;;;;;;;;;;10639940;27;20501;-84
2023/09/15 13:00:08;;;;;;;4.15;2.30;;;;;;;;;;10622775;27;20019;-85
2023/09/15 13:05:09;;;;;;;3.97;2.30;;;;;;;;;;10619288;27;20061;-83
2023/09/15 13:10:10;;;;;;;5.00;2.90;;;;;;;;;;10618225;27;20023;-83
2023/09/15 13:15:13;;;;;;;3.45;2.30;;;;;;;;;;10644559;27;20047;-83
2023/09/15 13:20:31;;;;;;;;;;;;;;;;;;10638707;27;20033;-83
2023/09/15 13:25:40;;;;;;;5.00;2.60;;;;;;;;;;10636543;27;19903;-83
2023/09/15 13:30:49;;;;;;;3.33;2.58;;;;;;;;;;10635659;27;20040;-84
2023/09/15 13:36:06;;;;;;;2.90;1.90;;;;;;;;;;10630149;27;20035;-83
2023/09/15 13:41:11;;;;;;;3.30;1.90;;;;;;;;;;10622017;27;20553;-84
2023/09/15 13:46:12;;;;;;;3.80;3.17;;;;;;;;;;10603211;28;20491;-83
2023/09/15 13:51:14;;;;;;;3.03;1.90;;;;;;;;;;10636609;28;20094;-83
2023/09/15 13:56:18;;;;;;;6.25;4.68;;;;;;;;;;10618477;28;20032;-83
2023/09/15 14:01:19;;;;;;;5.72;2.83;;;;;;;;;;10601590;28;20027;-83
2023/09/15 14:06:20;;;;;;;4.22;2.60;;;;;;;;;;10620539;27;20035;-83
2023/09/15 14:11:22;;;;;;;3.38;2.08;;;;;;;;;;10625161;27;20031;-82
2023/09/15 14:16:24;;;;;;;8.45;3.00;;;;;;;;;;10626327;27;20471;-83
2023/09/15 14:21:37;;;;;;;4.03;2.20;;;;;;;;;;10624416;27;20027;-84
2023/09/15 14:26:39;;;;;;;4.25;2.50;;;;;;;;;;10631560;27;20103;-82
2023/09/15 14:32:25;;;;;;;4.50;2.20;;;;;;;;;;10637801;27;20031;-84
2023/09/15 14:37:33;;;;;;;3.22;2.20;;;;;;;;;;10626676;27;20023;-85
2023/09/15 14:42:41;;;;;;;4.13;2.67;;;;;;;;;;10627416;27;20023;-84
2023/09/15 14:47:49;;;;;;;3.33;2.13;;;;;;;;;;10628908;27;20062;-82
2023/09/15 14:52:50;;;;;;;5.72;2.20;;;;;;;;;;10647642;27;20023;-84
2023/09/15 14:57:51;;;;;;;4.45;2.38;;;;;;;;;;10629379;27;20031;-85
2023/09/15 15:02:52;;;;;;;3.83;2.15;;;;;;;;;;10627567;27;20083;-85
2023/09/15 15:07:53;;;;;;;4.63;2.08;;;;;;;;;;10628994;27;20516;-84
2023/09/15 15:12:55;;;;;;;4.80;2.08;;;;;;;;;;10649055;27;20112;-84
2023/09/15 15:17:57;;;;;;;4.03;2.30;;;;;;;;;;10627740;27;20038;-84
2023/09/15 15:23:00;;;;;;;4.40;2.00;;;;;;;;;;10642089;27;20016;-83
2023/09/15 15:28:04;;;;;;;6.32;1.98;;;;;;;;;;10660986;27;20023;-83
2023/09/15 15:33:05;;;;;;;4.90;2.22;;;;;;;;;;10627000;27;20102;-83
2023/09/15 15:38:06;;;;;;;4.95;2.28;;;;;;;;;;10647746;27;20027;-81
2023/09/15 15:43:07;;;;;;;5.88;2.58;;;;;;;;;;10633311;27;20102;-81
2023/09/15 15:48:09;;;;;;;6.78;5.90;;;;;;;;;;10626768;27;20065;-83
2023/09/15 15:53:15;;;;;;;4.53;2.30;;;;;;;;;;10626807;27;20051;-83
2023/09/15 15:58:21;;;;;;;4.90;2.30;;;;;;;;;;10659938;27;20031;-81
2023/09/15 16:03:22;;;;;;;4.32;2.20;;;;;;;;;;10647317;27;20035;-78
2023/09/15 16:08:24;;;;;;;4.50;2.58;;;;;;;;;;10621177;27;20077;-77
2023/09/15 16:13:25;;;;;;;4.05;2.65;;;;;;;;;;10610578;27;20397;-78
2023/09/15 16:18:26;;;;;;;3.08;2.15;;;;;;;;;;10610242;27;20030;-77
2023/09/15 16:23:44;;;;;;;5.03;2.80;;;;;;;;;;10637618;27;20051;-80
2023/09/15 16:28:49;;;;;;;3.53;2.28;;;;;;;;;;10634959;27;20106;-79
2023/09/15 17:25:17;;;;;;;3.15;1.70;;;;;;;;;;10634366;27;20031;-84
2023/09/15 17:47:55;;;;;;;4.35;3.30;;;;;;;;;;10636307;27;20024;-84
2023/09/15 17:59:29;;;;;;;4.75;2.65;;;;;;;;;;10459025;28;20032;-87
2023/09/15 18:04:36;;;;;;;4.18;2.58;;;;;;;;;;10419319;28;20044;-87
2023/09/15 18:26:57;;;;;;;3.65;2.72;;;;;;;;;;10520086;28;20023;-85
2023/09/15 18:55:15;;;;;;;18.30;6.88;;;;;;;;;;10548945;28;20028;-85
